Time;durP1;ratioP1;P1;durP2;ratioP2;P2;SDS_P1;SDS_P2;PMS_P1;PMS_P2;Temp;Humidity;BMP_temperature;BMP_pressure;BME280_temperature;BME280_humidity;BME280_pressure;Samples;Min_cycle;Max_cycle;Signal;HPM_P1;HPM_P2
2022/08/28 00:01:02;;;;;;;12.45;3.72;;;;;;;15.21;90.81;101815.97;5055543;28;20116;-58
2022/08/28 00:03:31;;;;;;;12.55;3.70;;;;;;;15.30;90.57;101816.25;5055336;28;20554;-58
2022/08/28 00:06:01;;;;;;;11.15;3.42;;;;;;;15.19;91.43;101822.31;5055289;28;20099;-56
2022/08/28 00:08:30;;;;;;;12.00;3.72;;;;;;;15.21;91.29;101815.09;5055336;28;20100;-58
2022/08/28 00:10:58;;;;;;;11.93;4.13;;;;;;;15.21;91.68;101820.38;5055443;28;20565;-56
2022/08/28 00:13:27;;;;;;;12.88;4.07;;;;;;;14.92;93.38;101825.88;5055486;28;20120;-58
2022/08/28 00:15:59;;;;;;;12.93;4.28;;;;;;;14.91;93.60;101818.88;5055262;28;20435;-55
2022/08/28 00:18:30;;;;;;;12.88;4.00;;;;;;;14.98;93.30;101820.19;5055632;28;20449;-56
2022/08/28 00:21:00;;;;;;;15.55;4.18;;;;;;;14.98;93.56;101825.47;5055163;28;20045;-55
2022/08/28 00:23:31;;;;;;;11.65;3.45;;;;;;;14.97;94.02;101833.50;5055295;28;20060;-59
2022/08/28 00:27:51;;;;;;;12.38;3.75;;;;;;;14.87;94.52;101828.88;5054021;28;20053;-54
2022/08/28 00:29:04;;;;;;;12.30;3.80;;;;;;;14.85;94.63;101830.75;5054637;28;20041;-58
2022/08/28 00:31:44;;;;;;;13.55;3.58;;;;;;;14.85;94.88;101836.03;5054378;28;20605;-57
2022/08/28 00:34:13;;;;;;;12.10;3.70;;;;;;;14.82;95.37;101835.41;5055045;28;20045;-56
2022/08/28 00:36:42;;;;;;;9.05;3.40;;;;;;;14.80;94.95;101832.84;5055235;28;20037;-53
2022/08/28 00:39:11;;;;;;;11.70;3.30;;;;;;;14.91;94.34;101832.13;5054754;28;20061;-55
2022/08/28 00:41:40;;;;;;;12.60;3.80;;;;;;;14.79;95.30;101825.88;5054815;28;20123;-58
2022/08/28 00:44:12;;;;;;;12.25;3.90;;;;;;;14.71;95.51;101817.59;5054753;28;20094;-57
2022/08/28 00:46:41;;;;;;;9.80;3.80;;;;;;;14.62;96.42;101829.63;5053646;28;20059;-57
2022/08/28 00:49:11;;;;;;;10.50;3.47;;;;;;;14.50;97.44;101819.84;5054540;28;20051;-56
2022/08/28 00:54:28;;;;;;;10.50;3.40;;;;;;;14.56;97.21;101822.09;5054702;28;20047;-57
2022/08/28 00:56:57;;;;;;;12.43;3.65;;;;;;;14.62;97.19;101813.72;5054532;28;20048;-56
2022/08/28 00:59:29;;;;;;;9.35;3.42;;;;;;;14.54;97.92;101821.34;5054868;28;20049;-55
2022/08/28 01:01:58;;;;;;;11.80;3.25;;;;;;;14.59;97.42;101821.88;5054802;28;20044;-58
2022/08/28 01:04:31;;;;;;;12.15;3.88;;;;;;;14.49;98.01;101821.66;5054516;28;20041;-59
2022/08/28 01:07:02;;;;;;;11.65;3.90;;;;;;;14.45;98.34;101827.25;5052853;28;20077;-57
2022/08/28 01:09:33;;;;;;;11.32;3.42;;;;;;;14.48;98.11;101832.31;5086375;28;20052;-58
2022/08/28 01:12:05;;;;;;;12.32;3.60;;;;;;;14.48;98.73;101827.03;5054176;28;20082;-53
2022/08/28 01:14:36;;;;;;;11.93;4.10;;;;;;;14.39;99.23;101822.38;5054043;28;20553;-56
2022/08/28 01:17:07;;;;;;;18.60;4.07;;;;;;;14.38;99.28;101826.78;5054270;28;20049;-58
2022/08/28 01:19:39;;;;;;;10.65;3.58;;;;;;;14.42;98.95;101830.94;5054057;28;20424;-53
2022/08/28 01:22:18;;;;;;;11.32;3.28;;;;;;;14.44;98.66;101831.69;5054341;28;20044;-55
2022/08/28 01:24:49;;;;;;;9.40;3.05;;;;;;;14.35;99.73;101821.72;5053996;28;20435;-57
2022/08/28 01:27:18;;;;;;;9.57;3.33;;;;;;;14.47;99.02;101825.34;5053528;28;20055;-58
2022/08/28 01:29:46;;;;;;;11.07;3.55;;;;;;;14.36;99.57;101826.91;5053356;28;20098;-57
2022/08/28 01:32:27;;;;;;;12.35;3.70;;;;;;;14.37;99.48;101825.13;5053164;28;20049;-58
2022/08/28 01:34:55;;;;;;;12.57;3.40;;;;;;;14.55;98.40;101830.97;5053610;28;20049;-54
2022/08/28 01:37:23;;;;;;;10.25;3.55;;;;;;;14.40;99.51;101834.63;5052254;28;20115;-55
2022/08/28 01:39:54;;;;;;;10.45;3.10;;;;;;;14.39;99.22;101841.72;5053649;28;20049;-55
2022/08/28 01:42:23;;;;;;;8.57;3.10;;;;;;;14.37;99.64;101847.13;5053793;28;20388;-58
2022/08/28 01:44:52;;;;;;;10.88;3.63;;;;;;;14.35;99.69;101846.34;5053631;28;20576;-54
2022/08/28 01:47:21;;;;;;;12.43;3.40;;;;;;;14.35;99.77;101849.00;5053867;28;20041;-53
2022/08/28 01:49:50;;;;;;;11.77;3.53;;;;;;;14.36;99.61;101837.47;5053437;28;20044;-54
2022/08/28 01:52:18;;;;;;;9.20;3.67;;;;;;;14.43;99.10;101847.69;5053756;28;20083;-58
2022/08/28 01:54:54;;;;;;;8.65;3.17;;;;;;;14.28;100.00;101850.38;5053697;28;20085;-58
2022/08/28 01:57:24;;;;;;;9.20;3.20;;;;;;;14.27;100.00;101845.19;5053494;28;20040;-53
2022/08/28 01:59:53;;;;;;;7.35;2.90;;;;;;;14.27;100.00;101840.72;5053664;28;20040;-58
2022/08/28 02:02:21;;;;;;;10.82;3.13;;;;;;;14.23;100.00;101833.94;5053503;28;20045;-57
2022/08/28 02:04:49;;;;;;;11.27;3.58;;;;;;;14.28;100.00;101845.06;5053734;28;20041;-57
2022/08/28 02:07:17;;;;;;;13.98;3.38;;;;;;;14.22;100.00;101842.84;5053395;28;20041;-57
2022/08/28 02:09:45;;;;;;;13.02;3.10;;;;;;;14.23;100.00;101841.03;5051915;28;20476;-56
2022/08/28 02:12:15;;;;;;;12.63;3.58;;;;;;;14.08;100.00;101850.81;5052968;28;20044;-58
2022/08/28 02:14:44;;;;;;;12.38;3.65;;;;;;;13.98;100.00;101856.66;5053418;28;20569;-54
2022/08/28 02:17:12;;;;;;;11.30;3.47;;;;;;;14.09;100.00;101858.63;5052908;28;20053;-56
2022/08/28 02:19:40;;;;;;;9.55;3.20;;;;;;;14.10;100.00;101854.22;5053200;28;20045;-56
2022/08/28 02:22:12;;;;;;;10.35;3.20;;;;;;;14.08;100.00;101858.75;5053282;28;20041;-57
2022/08/28 02:24:40;;;;;;;8.98;3.10;;;;;;;14.11;100.00;101846.19;5053027;28;20052;-58
2022/08/28 02:27:09;;;;;;;9.52;3.17;;;;;;;14.09;100.00;101858.63;5052958;28;20379;-55
2022/08/28 02:29:38;;;;;;;15.27;3.55;;;;;;;14.11;100.00;101853.25;5053002;28;20045;-55
2022/08/28 02:32:07;;;;;;;11.35;3.22;;;;;;;14.01;100.00;101855.63;5052944;28;20041;-57
2022/08/28 02:34:37;;;;;;;12.85;3.22;;;;;;;14.04;100.00;101860.72;5052790;28;20388;-54
2022/08/28 02:37:07;;;;;;;10.70;3.38;;;;;;;14.07;100.00;101855.25;5052588;28;20040;-57
2022/08/28 02:39:36;;;;;;;8.98;2.83;;;;;;;13.97;100.00;101854.97;5052814;28;20044;-54
2022/08/28 02:42:04;;;;;;;10.65;3.10;;;;;;;14.01;100.00;101856.47;5052386;28;20099;-56
2022/08/28 02:44:33;;;;;;;11.38;3.78;;;;;;;14.05;100.00;101861.59;5052520;28;20539;-55
2022/08/28 02:47:02;;;;;;;9.00;2.92;;;;;;;14.05;100.00;101861.59;5052432;28;20083;-58
2022/08/28 02:49:31;;;;;;;13.00;3.72;;;;;;;14.00;100.00;101854.78;5052513;28;20068;-56
2022/08/28 02:52:05;;;;;;;;;;;;;;;14.00;100.00;101861.88;5053006;28;20128;-53
2022/08/28 02:54:34;;;;;;;10.10;3.00;;;;;;;13.94;100.00;101857.81;5052378;28;19921;-53
2022/08/28 02:57:02;;;;;;;12.98;3.53;;;;;;;13.94;100.00;101856.97;5051467;28;20144;-55
2022/08/28 02:59:30;;;;;;;11.02;3.20;;;;;;;13.98;100.00;101861.13;5052484;28;20430;-57
2022/08/28 03:01:59;;;;;;;11.05;3.30;;;;;;;14.02;100.00;101858.19;5051015;28;20522;-57
2022/08/28 03:04:30;;;;;;;9.50;3.53;;;;;;;13.91;100.00;101859.81;5052286;28;20073;-57
2022/08/28 03:06:58;;;;;;;11.95;3.45;;;;;;;13.92;100.00;101859.72;5052327;28;20049;-52
2022/08/28 03:09:27;;;;;;;9.35;3.08;;;;;;;13.91;100.00;101867.75;5050988;28;20083;-57
2022/08/28 03:11:55;;;;;;;12.88;3.03;;;;;;;13.88;100.00;101854.72;5052411;28;20057;-54
2022/08/28 03:14:25;;;;;;;11.35;3.47;;;;;;;13.83;100.00;101858.50;5052269;28;20041;-54
2022/08/28 03:16:53;;;;;;;11.68;3.00;;;;;;;13.85;100.00;101866.31;5050820;28;20071;-54
2022/08/28 03:19:21;;;;;;;9.63;2.70;;;;;;;13.97;100.00;101867.34;5052145;28;20076;-58
2022/08/28 03:21:51;;;;;;;10.88;3.42;;;;;;;13.82;100.00;101864.72;5052029;28;20484;-53
2022/08/28 03:24:18;;;;;;;9.98;3.53;;;;;;;13.76;100.00;101872.22;5052139;28;20041;-57
2022/08/28 03:26:47;;;;;;;8.90;3.15;;;;;;;13.73;100.00;101865.31;5052250;28;20049;-57
2022/08/28 03:29:15;;;;;;;10.75;3.28;;;;;;;13.68;100.00;101867.38;5053155;28;20053;-55
2022/08/28 03:31:43;;;;;;;8.85;3.17;;;;;;;13.63;100.00;101867.69;5055989;28;20099;-52
2022/08/28 03:34:11;;;;;;;9.25;3.10;;;;;;;13.62;100.00;101865.97;5056228;28;20045;-51
2022/08/28 03:36:39;;;;;;;11.95;3.45;;;;;;;13.63;100.00;101870.34;5056111;28;20442;-57
2022/08/28 03:39:09;;;;;;;10.38;3.00;;;;;;;13.66;100.00;101867.50;5054320;28;20052;-57
2022/08/28 03:41:37;;;;;;;9.32;2.80;;;;;;;13.63;100.00;101872.97;5055909;28;20048;-53
2022/08/28 03:44:05;;;;;;;10.05;2.85;;;;;;;13.61;100.00;101863.44;5055531;28;20123;-54
2022/08/28 03:46:34;;;;;;;9.63;2.75;;;;;;;13.62;100.00;101871.25;5055878;28;20144;-51
2022/08/28 03:49:05;;;;;;;9.30;2.83;;;;;;;13.60;100.00;101878.44;5055640;28;20049;-57
2022/08/28 03:51:35;;;;;;;9.57;2.90;;;;;;;13.61;100.00;101877.50;5055548;28;20052;-51
2022/08/28 03:54:04;;;;;;;11.00;3.05;;;;;;;13.55;100.00;101880.50;5055382;28;20049;-56
2022/08/28 03:56:37;;;;;;;10.75;3.33;;;;;;;13.43;100.00;101878.59;5054177;28;20080;-52
2022/08/28 03:59:07;;;;;;;11.63;3.47;;;;;;;13.43;100.00;101883.88;5055858;28;20045;-58
2022/08/28 04:01:36;;;;;;;10.90;2.90;;;;;;;13.51;100.00;101882.50;5055749;28;20657;-57
2022/08/28 04:04:05;;;;;;;12.77;3.08;;;;;;;13.47;100.00;101885.41;5055031;28;20095;-55
2022/08/28 04:06:33;;;;;;;8.43;3.00;;;;;;;13.47;100.00;101886.28;5055234;28;20055;-53
2022/08/28 04:09:03;;;;;;;9.52;2.72;;;;;;;13.46;100.00;101895.13;5055250;28;20114;-56
2022/08/28 04:11:31;;;;;;;8.57;2.80;;;;;;;13.51;100.00;101894.84;5055170;28;20041;-54
2022/08/28 04:14:01;;;;;;;11.93;3.25;;;;;;;13.57;100.00;101894.47;5053635;28;20048;-52
2022/08/28 04:16:29;;;;;;;14.50;3.30;;;;;;;13.56;100.00;101898.06;5055481;28;20388;-52
2022/08/28 04:18:58;;;;;;;9.73;2.70;;;;;;;13.53;100.00;101900.91;5055145;28;20131;-56
2022/08/28 04:21:26;;;;;;;10.02;2.95;;;;;;;13.54;100.00;101899.97;5054965;28;20045;-58
2022/08/28 04:23:55;;;;;;;12.38;2.90;;;;;;;13.51;100.00;101894.84;5055075;28;20127;-53
2022/08/28 04:26:26;;;;;;;9.25;3.08;;;;;;;13.54;100.00;101902.59;5054734;28;20053;-56
2022/08/28 04:28:55;;;;;;;12.63;2.95;;;;;;;13.46;100.00;101899.59;5054803;28;20052;-52
2022/08/28 04:31:24;;;;;;;9.63;3.30;;;;;;;13.43;100.00;101899.75;5054980;28;20503;-51
2022/08/28 04:34:00;;;;;;;13.25;2.75;;;;;;;13.45;100.00;101897.88;5054555;28;20052;-57
2022/08/28 04:36:28;;;;;;;11.43;3.30;;;;;;;13.45;100.00;101901.34;5054599;28;20547;-56
2022/08/28 04:38:57;;;;;;;7.97;2.50;;;;;;;13.48;100.00;101909.13;5054994;28;20156;-57
2022/08/28 04:41:27;;;;;;;10.75;3.10;;;;;;;13.49;100.00;101909.97;5054570;28;20053;-52
2022/08/28 04:43:56;;;;;;;8.40;2.50;;;;;;;13.42;100.00;101909.47;5054253;28;20132;-55
2022/08/28 04:46:26;;;;;;;10.50;2.90;;;;;;;13.46;100.00;101915.44;5054953;28;20057;-56
2022/08/28 04:48:58;;;;;;;12.13;3.05;;;;;;;13.41;100.00;101915.69;5054740;28;20045;-53
2022/08/28 04:51:27;;;;;;;10.65;3.20;;;;;;;13.42;100.00;101913.91;5054390;28;20044;-56
2022/08/28 04:53:55;;;;;;;10.40;3.50;;;;;;;13.44;100.00;101917.31;5054154;28;20049;-59
2022/08/28 04:56:25;;;;;;;9.52;2.80;;;;;;;13.37;100.00;101913.34;5054357;28;20071;-55
2022/08/28 04:58:53;;;;;;;7.40;2.55;;;;;;;13.37;100.00;101926.56;5054140;28;20461;-53
2022/08/28 05:01:24;;;;;;;10.23;3.25;;;;;;;13.45;100.00;101919.00;5054594;28;20045;-54
2022/08/28 05:03:58;;;;;;;9.82;2.80;;;;;;;13.35;100.00;101923.97;5054341;28;20049;-57
2022/08/28 05:06:28;;;;;;;12.07;3.42;;;;;;;13.35;100.00;101924.84;5054779;28;20052;-55
2022/08/28 05:08:59;;;;;;;10.25;3.33;;;;;;;13.32;100.00;101926.78;5054430;28;20052;-56
2022/08/28 05:11:30;;;;;;;9.98;3.03;;;;;;;13.30;100.00;101928.66;5086591;28;20414;-53
2022/08/28 05:14:04;;;;;;;12.95;2.65;;;;;;;13.38;100.00;101925.63;5054376;28;20055;-56
2022/08/28 05:16:35;;;;;;;9.02;2.88;;;;;;;13.29;100.00;101930.47;5054251;28;20041;-53
2022/08/28 05:19:05;;;;;;;11.13;3.20;;;;;;;13.38;100.00;101925.63;5054504;28;20049;-57
2022/08/28 05:21:33;;;;;;;9.82;3.08;;;;;;;13.42;100.00;101927.97;5054467;28;20540;-58
2022/08/28 05:24:01;;;;;;;13.18;3.20;;;;;;;13.34;100.00;101931.03;5054044;28;20028;-57
2022/08/28 05:26:30;;;;;;;11.25;2.95;;;;;;;13.40;100.00;101921.06;5054153;28;20045;-56
2022/08/28 05:28:59;;;;;;;13.23;3.10;;;;;;;13.35;100.00;101923.97;5053915;28;20060;-53
2022/08/28 05:31:29;;;;;;;13.35;3.05;;;;;;;13.35;100.00;101927.50;5054168;28;20083;-56
2022/08/28 05:33:59;;;;;;;10.52;2.92;;;;;;;13.43;100.00;101928.81;5053731;28;20064;-56
2022/08/28 05:36:31;;;;;;;10.63;3.25;;;;;;;13.43;100.00;101926.16;5053861;28;20137;-57
2022/08/28 05:39:03;;;;;;;10.70;2.75;;;;;;;13.40;100.00;101932.47;5053454;28;20064;-55
2022/08/28 05:41:32;;;;;;;10.70;3.10;;;;;;;13.43;100.00;101931.44;5053835;28;20049;-56
2022/08/28 05:44:01;;;;;;;11.18;3.35;;;;;;;13.37;100.00;101934.47;5053519;28;20037;-57
2022/08/28 05:46:30;;;;;;;9.10;3.13;;;;;;;13.45;100.00;101937.50;5053719;28;20037;-56
2022/08/28 05:48:59;;;;;;;10.85;3.08;;;;;;;13.48;100.00;101937.31;5053491;28;20049;-53
2022/08/28 05:51:30;;;;;;;10.57;2.80;;;;;;;13.47;100.00;101941.75;5053260;28;20045;-59
2022/08/28 05:53:58;;;;;;;13.05;3.33;;;;;;;13.58;100.00;101946.41;5051785;28;20056;-56
2022/08/28 05:56:29;;;;;;;8.15;2.80;;;;;;;13.57;100.00;101944.69;5053485;28;20476;-57
2022/08/28 05:58:58;;;;;;;11.05;2.50;;;;;;;13.63;100.00;101951.41;5053307;28;20056;-57
2022/08/28 06:01:29;;;;;;;10.27;2.65;;;;;;;13.65;100.00;101945.06;5053285;28;20049;-56
2022/08/28 06:03:59;;;;;;;14.00;3.55;;;;;;;13.70;100.00;101944.78;5053333;28;20080;-53
2022/08/28 06:06:33;;;;;;;8.50;2.63;;;;;;;13.78;100.00;101947.81;5053492;28;20417;-53
2022/08/28 06:09:07;;;;;;;10.68;2.72;;;;;;;13.85;100.00;101948.28;5053217;28;20261;-53
2022/08/28 06:11:37;;;;;;;11.98;2.63;;;;;;;13.91;100.00;101950.56;5053162;28;20044;-56
2022/08/28 06:14:17;;;;;;;9.13;2.90;;;;;;;14.03;100.00;101955.09;5083508;28;20526;-58
2022/08/28 06:16:47;;;;;;;9.70;2.53;;;;;;;14.15;100.00;101948.19;5051749;28;20447;-55
2022/08/28 06:19:18;;;;;;;11.55;2.97;;;;;;;14.24;100.00;101951.22;5053051;28;20064;-49
2022/08/28 06:21:47;;;;;;;10.18;2.72;;;;;;;14.33;100.00;101950.63;5052947;28;20484;-54
2022/08/28 06:24:15;;;;;;;9.95;2.85;;;;;;;14.43;100.00;101957.03;5052953;28;20083;-53
2022/08/28 06:26:44;;;;;;;12.02;2.50;;;;;;;14.58;100.00;101957.84;5051635;28;20057;-57
2022/08/28 06:29:18;;;;;;;10.90;2.75;;;;;;;14.73;100.00;101961.31;5052874;28;20090;-48
2022/08/28 06:31:53;;;;;;;9.63;2.95;;;;;;;14.81;100.00;101950.25;5052808;28;20481;-58
2022/08/28 06:34:22;;;;;;;8.70;2.30;;;;;;;14.90;100.00;101962.00;5052833;28;20349;-54
2022/08/28 06:36:51;;;;;;;7.47;2.50;;;;;;;15.08;100.00;101963.47;5052944;28;20045;-53
2022/08/28 06:39:21;;;;;;;8.05;2.53;;;;;;;15.12;100.00;101966.72;5052436;28;20059;-55
2022/08/28 06:41:49;;;;;;;9.98;3.20;;;;;;;15.23;100.00;101964.22;5052788;28;20557;-53
2022/08/28 06:44:20;;;;;;;9.18;2.72;;;;;;;15.37;100.00;101974.72;5052394;28;20049;-56
2022/08/28 06:46:50;;;;;;;9.40;2.38;;;;;;;15.51;100.00;101972.94;5052439;28;20059;-57
2022/08/28 06:49:20;;;;;;;9.57;2.30;;;;;;;15.62;100.00;101970.41;5052572;28;20056;-57
2022/08/28 06:51:49;;;;;;;10.27;2.30;;;;;;;15.76;99.13;101971.25;5052492;28;20496;-57
2022/08/28 06:54:18;;;;;;;11.35;2.20;;;;;;;15.87;98.12;101966.94;5052276;28;20573;-57
2022/08/28 06:56:50;;;;;;;9.20;2.30;;;;;;;16.03;96.60;101966.72;5052257;28;20384;-58
2022/08/28 06:59:18;;;;;;;7.10;1.83;;;;;;;16.11;95.77;101960.84;5052040;28;20072;-56
2022/08/28 07:01:47;;;;;;;11.25;2.47;;;;;;;16.27;94.06;101970.41;5051715;28;20048;-56
2022/08/28 07:04:15;;;;;;;9.85;2.17;;;;;;;16.38;93.32;101968.66;5051139;28;20538;-57
2022/08/28 07:06:48;;;;;;;10.82;2.30;;;;;;;16.56;92.18;101963.84;5051894;28;20103;-52
2022/08/28 07:09:24;;;;;;;7.93;2.25;;;;;;;16.70;91.51;101967.25;5050557;28;20360;-57
2022/08/28 07:11:52;;;;;;;6.82;2.00;;;;;;;16.88;89.90;101968.56;5051856;28;20072;-57
2022/08/28 07:14:20;;;;;;;5.93;1.75;;;;;;;17.02;90.04;101967.56;5052086;28;20134;-59
2022/08/28 07:16:49;;;;;;;10.02;1.90;;;;;;;17.20;87.85;101969.81;5051669;28;20037;-59
2022/08/28 07:19:19;;;;;;;13.05;2.58;;;;;;;17.34;87.30;101971.41;5051584;28;20080;-58
2022/08/28 07:21:48;;;;;;;10.45;2.47;;;;;;;17.52;85.90;101969.16;5051548;28;20087;-58
2022/08/28 07:24:17;;;;;;;8.57;1.80;;;;;;;17.64;84.09;101976.22;5051897;28;20052;-57
2022/08/28 07:26:47;;;;;;;6.30;2.05;;;;;;;17.79;84.83;101975.97;5051562;28;20068;-58
2022/08/28 07:29:17;;;;;;;9.55;2.08;;;;;;;17.97;82.70;101981.69;5052118;28;20107;-60
2022/08/28 07:31:47;;;;;;;8.95;1.90;;;;;;;18.13;80.36;101978.66;5051849;28;20041;-58
2022/08/28 07:34:17;;;;;;;9.18;2.47;;;;;;;18.29;80.25;101980.94;5051699;28;20398;-57
2022/08/28 07:36:46;;;;;;;6.43;2.10;;;;;;;18.41;78.85;101979.97;5051522;28;20037;-58
2022/08/28 07:39:15;;;;;;;8.55;2.10;;;;;;;18.64;77.46;101974.56;5051132;28;20467;-57
2022/08/28 07:41:44;;;;;;;11.52;1.92;;;;;;;18.79;76.33;101983.97;5051626;28;20464;-58
2022/08/28 07:47:10;;;;;;;6.60;1.60;;;;;;;19.14;73.81;101974.06;5027097;28;20067;-59
2022/08/28 07:49:39;;;;;;;6.53;1.70;;;;;;;19.28;72.78;101987.09;5051354;28;20052;-58
2022/08/28 07:52:09;;;;;;;7.43;1.98;;;;;;;19.36;72.63;101987.28;5051338;28;20103;-58
2022/08/28 07:54:39;;;;;;;8.05;2.10;;;;;;;19.57;72.20;101981.09;5051901;28;20037;-58
2022/08/28 07:57:09;;;;;;;7.30;1.70;;;;;;;19.73;70.44;101976.13;5051384;28;20045;-58
2022/08/28 07:59:41;;;;;;;7.75;1.83;;;;;;;19.91;69.15;101991.53;5049828;28;20053;-59
2022/08/28 08:02:10;;;;;;;8.73;1.97;;;;;;;20.02;68.94;101985.28;5051074;28;20487;-58
2022/08/28 08:04:39;;;;;;;6.30;1.63;;;;;;;20.20;67.72;101985.47;5051048;28;20079;-59
2022/08/28 08:07:07;;;;;;;10.80;2.33;;;;;;;20.24;66.43;101981.53;5051331;28;20396;-58
2022/08/28 08:09:38;;;;;;;7.30;1.90;;;;;;;20.37;65.45;101981.28;5051416;28;20053;-59
2022/08/28 08:12:06;;;;;;;7.25;1.73;;;;;;;20.55;65.76;101987.66;5051525;28;20049;-58
2022/08/28 08:14:39;;;;;;;6.50;1.77;;;;;;;20.69;63.91;101988.28;5051528;28;20395;-58
2022/08/28 08:17:08;;;;;;;9.52;2.13;;;;;;;20.79;61.54;101991.78;5055071;28;20063;-57
2022/08/28 08:19:37;;;;;;;8.27;1.75;;;;;;;21.03;61.52;101996.75;5055069;28;20045;-58
2022/08/28 08:22:06;;;;;;;6.47;1.50;;;;;;;21.19;60.44;102011.38;5054616;28;20127;-58
2022/08/28 08:24:34;;;;;;;9.48;1.88;;;;;;;21.25;60.07;102005.47;5054757;28;20041;-57
2022/08/28 08:27:02;;;;;;;9.00;2.05;;;;;;;21.30;59.87;102005.00;5054465;28;20040;-56
2022/08/28 08:29:35;;;;;;;5.18;1.58;;;;;;;21.42;58.95;102004.75;5053241;28;20057;-58
2022/08/28 08:32:08;;;;;;;5.68;1.70;;;;;;;21.57;59.46;102002.50;5054462;28;20045;-56
2022/08/28 08:34:39;;;;;;;8.40;1.88;;;;;;;21.77;57.66;101997.94;5054815;28;20376;-58
2022/08/28 08:37:07;;;;;;;6.53;1.70;;;;;;;21.83;58.00;101993.81;5053600;28;20106;-57
2022/08/28 08:39:36;;;;;;;6.82;1.63;;;;;;;21.87;57.27;101999.72;5053227;28;20080;-60
2022/08/28 08:42:10;;;;;;;4.85;1.33;;;;;;;22.19;57.72;102001.13;5054815;28;20416;-59
2022/08/28 08:44:41;;;;;;;6.05;1.70;;;;;;;22.28;56.62;101997.56;5054574;28;20132;-59
2022/08/28 08:47:16;;;;;;;8.98;1.90;;;;;;;22.42;56.21;101999.75;5054523;28;20444;-58
2022/08/28 08:49:51;;;;;;;7.72;1.38;;;;;;;22.66;56.02;101994.81;5054614;28;20118;-59
2022/08/28 08:52:40;;;;;;;7.22;1.80;;;;;;;22.54;54.43;101996.88;5054413;28;20045;-59
2022/08/28 08:55:20;;;;;;;9.00;1.52;;;;;;;22.62;54.48;102002.34;5054635;28;20049;-60
2022/08/28 08:58:04;;;;;;;6.05;1.63;;;;;;;22.48;53.52;101992.94;5054247;28;20056;-61
2022/08/28 09:00:39;;;;;;;6.68;1.55;;;;;;;22.52;53.63;101993.50;5054381;28;20044;-61
2022/08/28 09:03:16;;;;;;;5.00;1.40;;;;;;;22.38;53.57;101994.88;5054205;28;20045;-61
2022/08/28 09:05:52;;;;;;;7.75;1.73;;;;;;;22.75;54.13;102000.09;5054008;28;20057;-62
2022/08/28 09:08:31;;;;;;;9.75;1.67;;;;;;;22.73;54.02;102002.09;5054098;28;20057;-61
2022/08/28 09:11:12;;;;;;;4.07;1.52;;;;;;;22.87;52.37;102005.25;5053983;28;20136;-62
2022/08/28 09:13:50;;;;;;;6.45;1.55;;;;;;;22.83;52.97;101999.34;5054141;28;20492;-58
2022/08/28 09:16:28;;;;;;;6.90;1.67;;;;;;;23.01;52.04;101996.66;5053963;28;20053;-58
2022/08/28 09:18:59;;;;;;;5.75;1.80;;;;;;;23.00;51.45;101995.00;5054040;28;20105;-61
2022/08/28 09:21:30;;;;;;;5.45;1.60;;;;;;;23.06;52.16;101997.03;5054209;28;20492;-61
2022/08/28 09:24:02;;;;;;;7.93;1.65;;;;;;;23.29;50.57;101992.06;5053899;28;20053;-61
2022/08/28 09:26:33;;;;;;;5.70;1.50;;;;;;;23.27;51.19;101990.53;5053119;28;20033;-61
2022/08/28 09:29:05;;;;;;;4.82;1.60;;;;;;;23.12;51.85;101993.78;5053963;28;20040;-61
2022/08/28 09:31:36;;;;;;;5.75;1.55;;;;;;;23.32;51.79;101984.72;5053747;28;20045;-61
2022/08/28 09:34:35;;;;;;;8.95;1.50;;;;;;;23.19;49.85;101994.00;5053642;28;20045;-62
2022/08/28 09:37:08;;;;;;;6.18;1.50;;;;;;;22.97;50.88;101995.28;5011558;28;20049;-61
2022/08/28 09:39:41;;;;;;;3.67;1.33;;;;;;;22.97;50.62;101995.28;5046812;28;20083;-60
2022/08/28 09:45:17;;;;;;;6.50;1.55;;;;;;;22.33;51.21;102002.47;5053348;28;20452;-63
2022/08/28 09:47:48;;;;;;;5.35;1.40;;;;;;;22.51;51.72;101997.16;5053299;28;20123;-60
2022/08/28 09:50:34;;;;;;;6.07;1.45;;;;;;;22.34;51.15;101997.00;5053243;28;20388;-61
2022/08/28 09:53:19;;;;;;;5.13;1.35;;;;;;;22.59;50.35;101998.13;5052507;28;20132;-62
2022/08/28 09:55:56;;;;;;;4.85;1.70;;;;;;;22.86;50.30;101992.84;5085478;28;20416;-62
2022/08/28 09:58:33;;;;;;;3.80;1.33;;;;;;;23.15;48.84;101986.41;5053460;28;20102;-58
2022/08/28 10:01:10;;;;;;;7.65;1.52;;;;;;;23.58;48.98;101988.22;5052982;28;20053;-59
2022/08/28 10:03:46;;;;;;;4.05;1.20;;;;;;;23.83;45.50;101982.16;5053166;28;20053;-59
2022/08/28 10:06:25;;;;;;;6.65;1.60;;;;;;;24.12;46.92;102001.47;5053104;28;20045;-58
2022/08/28 10:09:09;;;;;;;4.18;1.05;;;;;;;24.00;44.67;101991.19;5053073;28;20476;-58
2022/08/28 10:11:46;;;;;;;5.20;1.30;;;;;;;24.25;45.53;101978.66;5053106;28;20041;-57
2022/08/28 10:14:30;;;;;;;4.07;1.35;;;;;;;24.74;43.98;101984.16;5053094;28;20053;-59
2022/08/28 10:17:09;;;;;;;4.63;1.30;;;;;;;25.01;42.48;101998.31;5052924;28;20053;-59
2022/08/28 10:19:49;;;;;;;4.00;1.10;;;;;;;25.21;42.42;101987.22;5052948;28;20400;-60
2022/08/28 10:22:28;;;;;;;4.10;1.20;;;;;;;25.57;42.51;101982.31;5051620;28;20102;-59
2022/08/28 10:25:09;;;;;;;6.88;1.52;;;;;;;25.78;41.32;101986.28;5052884;28;20131;-59
2022/08/28 10:28:01;;;;;;;9.07;1.52;;;;;;;25.62;41.14;101981.81;5052891;28;20139;-60
2022/08/28 10:30:32;;;;;;;5.00;1.20;;;;;;;26.02;40.18;101988.09;5050629;28;20575;-59
2022/08/28 10:33:18;;;;;;;6.18;1.70;;;;;;;25.67;40.96;101982.13;5052733;28;20041;-60
2022/08/28 10:35:52;;;;;;;5.53;1.27;;;;;;;25.08;40.35;101985.88;5053037;28;20044;-60
2022/08/28 10:38:31;;;;;;;5.32;1.33;;;;;;;24.90;41.00;101979.84;5052182;28;20061;-60
2022/08/28 10:41:04;;;;;;;4.10;1.23;;;;;;;25.62;42.32;101987.19;5052801;28;20060;-60
2022/08/28 10:43:37;;;;;;;5.53;1.67;;;;;;;25.49;41.43;101993.09;5052658;28;20060;-59
2022/08/28 10:46:13;;;;;;;7.97;1.58;;;;;;;24.98;41.48;101988.75;5050635;28;20052;-58
2022/08/28 10:48:46;;;;;;;4.50;1.42;;;;;;;24.88;42.11;101985.38;5051853;28;20099;-58
2022/08/28 10:51:20;;;;;;;6.20;1.27;;;;;;;25.43;41.87;101985.72;5051931;28;20041;-58
2022/08/28 10:54:10;;;;;;;5.30;1.77;;;;;;;25.43;40.99;101989.25;5052225;28;20524;-58
2022/08/28 10:56:45;;;;;;;4.68;1.50;;;;;;;25.03;40.00;101998.16;5052084;28;20045;-58
2022/08/28 10:59:25;;;;;;;4.40;1.33;;;;;;;25.17;40.39;101992.09;5052186;28;20051;-59
2022/08/28 11:01:53;;;;;;;6.32;1.70;;;;;;;25.52;39.81;101986.53;5052037;28;20048;-59
2022/08/28 11:04:26;;;;;;;6.90;1.40;;;;;;;25.99;39.58;101983.84;5052028;28;20522;-59
2022/08/28 11:06:58;;;;;;;6.20;1.23;;;;;;;25.91;39.60;101988.44;5052194;28;20056;-58
2022/08/28 11:09:35;;;;;;;4.10;1.20;;;;;;;25.79;40.00;101982.59;5052097;28;20561;-59
2022/08/28 11:12:08;;;;;;;4.38;1.52;;;;;;;25.36;39.73;101980.19;5051966;28;20052;-60
2022/08/28 11:14:38;;;;;;;;;;;;;;;25.11;40.49;101982.88;5052311;28;20102;-59
2022/08/28 11:17:38;;;;;;;3.92;1.55;;;;;;;24.85;41.64;101990.25;5051599;28;19956;-59
2022/08/28 11:20:15;;;;;;;3.45;1.08;;;;;;;25.56;40.59;101979.78;5052253;28;20048;-59
2022/08/28 11:22:46;;;;;;;4.18;1.38;;;;;;;26.23;38.56;101984.81;5051974;28;20048;-59
2022/08/28 11:25:23;;;;;;;4.90;1.42;;;;;;;26.15;38.91;101982.13;5051936;28;20041;-62
2022/08/28 11:28:21;;;;;;;4.10;1.10;;;;;;;25.64;39.71;101991.38;5051840;28;20391;-59
2022/08/28 11:31:12;;;;;;;10.93;1.52;;;;;;;25.38;40.88;101997.00;5052357;28;20053;-58
2022/08/28 11:33:58;;;;;;;5.45;1.50;;;;;;;25.00;41.14;101993.94;5051874;28;20053;-59
2022/08/28 11:36:58;;;;;;;4.65;1.50;;;;;;;24.88;41.53;101989.91;5051919;28;20049;-59
2022/08/28 11:39:27;;;;;;;4.45;1.35;;;;;;;25.46;40.55;101980.81;5051529;28;20057;-59
2022/08/28 11:42:35;;;;;;;4.05;1.30;;;;;;;26.26;40.16;101994.38;5051825;28;20044;-60
2022/08/28 11:45:03;;;;;;;5.05;1.52;;;;;;;26.74;37.10;101987.03;5050747;28;20051;-60
2022/08/28 11:47:38;;;;;;;5.63;1.40;;;;;;;26.22;38.07;101993.03;5051157;28;20519;-60
2022/08/28 11:50:18;;;;;;;7.50;1.52;;;;;;;26.02;38.50;101995.31;5052341;28;20056;-59